Time;durP1;ratioP1;P1;durP2;ratioP2;P2;SDS_P1;SDS_P2;PMS_P1;PMS_P2;Temp;Humidity;BMP_temperature;BMP_pressure;BME280_temperature;BME280_humidity;BME280_pressure;Samples;Min_cycle;Max_cycle;Signal;HPM_P1;HPM_P2
2022/04/02 00:00:17;;;;;;;20.95;16.08;;;1.10;99.90;;;;;;6228084;23;20004;-81
2022/04/02 05:03:15;;;;;;;17.63;11.85;;;0.80;99.90;;;;;;6195585;22;20048;-79
2022/04/02 05:05:45;;;;;;;17.88;12.05;;;0.70;99.90;;;;;;6182086;23;20053;-81
2022/04/02 05:08:17;;;;;;;20.15;11.82;;;0.70;99.90;;;;;;6158528;23;20009;-81
2022/04/02 05:10:46;;;;;;;16.90;11.85;;;0.70;99.90;;;;;;6179966;23;20001;-81
2022/04/02 05:13:18;;;;;;;18.15;12.10;;;0.70;99.90;;;;;;6176315;23;20000;-78
2022/04/02 05:15:48;;;;;;;18.45;12.00;;;0.70;99.90;;;;;;6151272;23;20025;-81
2022/04/02 05:18:15;;;;;;;19.45;12.23;;;0.70;99.90;;;;;;6155251;23;20056;-79
2022/04/02 05:20:41;;;;;;;16.98;11.77;;;0.80;99.90;;;;;;6121236;23;20009;-79
2022/04/02 05:23:09;;;;;;;18.65;12.43;;;0.80;99.90;;;;;;6176052;23;20013;-77
2022/04/02 05:25:38;;;;;;;17.60;12.27;;;0.70;99.90;;;;;;6104019;23;20109;-82
2022/04/02 05:28:09;;;;;;;16.42;11.60;;;0.80;99.90;;;;;;6151267;23;20016;-80
2022/04/02 05:30:39;;;;;;;15.77;11.25;;;0.80;99.90;;;;;;6125098;23;20271;-80
2022/04/02 05:33:06;;;;;;;18.63;11.75;;;0.80;99.90;;;;;;6174006;23;20012;-79
2022/04/02 05:35:33;;;;;;;15.48;11.07;;;0.80;99.90;;;;;;6171999;23;20329;-76
2022/04/02 05:37:59;;;;;;;15.05;10.48;;;0.80;99.90;;;;;;6174560;23;20009;-80
2022/04/02 05:40:25;;;;;;;15.30;10.68;;;0.80;99.90;;;;;;6174048;23;20005;-78
2022/04/02 05:42:50;;;;;;;15.13;11.10;;;0.80;99.90;;;;;;6125078;23;20250;-78
2022/04/02 05:45:16;;;;;;;14.88;10.25;;;0.80;99.90;;;;;;6148993;23;20017;-78
2022/04/02 05:47:44;;;;;;;14.88;10.75;;;0.80;99.90;;;;;;6175654;23;20299;-78
2022/04/02 05:50:12;;;;;;;14.60;10.55;;;0.90;99.90;;;;;;6179050;23;20020;-78
2022/04/02 05:52:38;;;;;;;13.77;10.65;;;0.80;99.90;;;;;;6202480;23;20048;-78
2022/04/02 05:55:10;;;;;;;18.42;10.65;;;0.90;99.90;;;;;;6178826;23;20025;-80
2022/04/02 05:57:39;;;;;;;13.77;10.07;;;0.90;99.90;;;;;;6151464;23;20013;-80
2022/04/02 06:00:07;;;;;;;13.63;10.07;;;0.90;99.90;;;;;;6176408;23;20223;-80
2022/04/02 06:02:39;;;;;;;13.77;10.13;;;0.90;99.90;;;;;;6216941;23;20241;-80
2022/04/02 06:05:09;;;;;;;12.55;9.25;;;0.90;99.90;;;;;;6205727;23;20008;-81
2022/04/02 06:07:36;;;;;;;12.57;9.30;;;0.90;99.90;;;;;;6210903;23;20027;-81
2022/04/02 06:10:04;;;;;;;14.30;9.00;;;0.90;99.90;;;;;;6261884;23;20005;-81
2022/04/02 06:12:31;;;;;;;12.65;9.52;;;0.90;99.90;;;;;;6265740;22;20005;-77
2022/04/02 06:14:57;;;;;;;12.50;8.70;;;1.00;99.90;;;;;;6233450;23;20001;-78
2022/04/02 06:17:23;;;;;;;12.43;8.73;;;1.00;99.90;;;;;;6196307;23;20069;-80
2022/04/02 06:19:49;;;;;;;13.25;9.18;;;1.00;99.90;;;;;;6198350;23;20299;-80
2022/04/02 06:22:14;;;;;;;11.20;8.82;;;1.10;99.90;;;;;;6195950;23;20009;-79
2022/04/02 06:24:40;;;;;;;13.65;8.43;;;1.20;99.90;;;;;;6195920;23;20016;-80
2022/04/02 06:27:07;;;;;;;11.35;8.00;;;1.20;99.90;;;;;;6149918;23;20017;-80
2022/04/02 06:29:33;;;;;;;11.85;7.80;;;1.20;99.90;;;;;;6173077;23;20008;-80
2022/04/02 06:31:59;;;;;;;8.90;6.68;;;1.30;99.90;;;;;;6198812;23;20020;-80
2022/04/02 06:34:25;;;;;;;10.50;7.55;;;1.30;99.90;;;;;;6195471;23;20365;-80
2022/04/02 06:36:50;;;;;;;10.32;7.00;;;1.40;99.90;;;;;;6220128;23;20028;-81
2022/04/02 06:39:16;;;;;;;9.98;6.95;;;1.40;99.90;;;;;;6195639;23;20032;-79
2022/04/02 06:41:42;;;;;;;9.27;6.70;;;1.40;99.90;;;;;;6198195;23;20140;-80
2022/04/02 06:44:08;;;;;;;9.63;7.03;;;1.50;99.90;;;;;;6171731;23;20016;-80
2022/04/02 06:46:37;;;;;;;8.82;6.63;;;1.50;99.90;;;;;;6199294;23;20230;-79
2022/04/02 06:49:04;;;;;;;9.00;6.40;;;1.50;99.90;;;;;;6205915;23;20005;-81
2022/04/02 06:51:30;;;;;;;10.07;6.60;;;1.50;99.90;;;;;;6253639;23;20005;-78
2022/04/02 06:53:56;;;;;;;10.70;7.20;;;1.60;99.90;;;;;;6231327;23;20000;-80
2022/04/02 06:56:22;;;;;;;8.70;6.40;;;1.60;99.90;;;;;;6228679;23;20023;-79
2022/04/02 06:58:48;;;;;;;9.00;6.30;;;1.70;99.90;;;;;;6205317;23;20278;-79
2022/04/02 07:01:14;;;;;;;7.68;5.93;;;1.70;99.90;;;;;;6141933;23;20013;-80
2022/04/02 07:03:40;;;;;;;10.82;6.78;;;1.60;99.90;;;;;;6167979;23;20162;-79
2022/04/02 07:06:07;;;;;;;9.13;7.03;;;1.60;99.90;;;;;;6142055;23;20053;-81
2022/04/02 07:08:36;;;;;;;9.10;6.10;;;1.60;99.90;;;;;;6142871;23;20037;-80
2022/04/02 07:11:01;;;;;;;7.78;6.35;;;1.60;99.90;;;;;;6144138;23;20001;-79
2022/04/02 07:13:28;;;;;;;9.07;6.10;;;1.50;99.90;;;;;;6144095;23;20016;-80
2022/04/02 07:15:54;;;;;;;10.00;7.47;;;1.40;99.90;;;;;;6142333;23;20010;-78
2022/04/02 07:18:32;;;;;;;9.40;6.63;;;1.50;99.90;;;;;;6144595;23;20057;-80
2022/04/02 07:21:00;;;;;;;10.10;7.13;;;1.50;99.90;;;;;;6142649;23;20001;-81
2022/04/02 07:23:28;;;;;;;10.38;7.28;;;1.50;99.90;;;;;;6167546;23;19994;-81
2022/04/02 07:26:10;;;;;;;11.00;7.13;;;1.60;99.90;;;;;;6142396;23;20013;-81
2022/04/02 07:28:39;;;;;;;10.10;6.88;;;1.60;99.90;;;;;;6143704;23;20009;-81
2022/04/02 07:31:05;;;;;;;10.57;7.30;;;1.70;99.90;;;;;;6171898;23;20307;-82
2022/04/02 07:33:31;;;;;;;10.60;7.10;;;1.60;99.90;;;;;;6256211;23;20004;-82
2022/04/02 07:37:04;;;;;;;9.68;7.03;;;1.50;99.90;;;;;;6233863;23;20044;-81
2022/04/02 07:44:08;;;;;;;9.95;7.25;;;1.50;99.90;;;;;;6052989;23;20062;-82
2022/04/02 07:49:52;;;;;;;11.35;7.13;;;1.40;99.90;;;;;;6048278;23;20100;-82
2022/04/02 07:53:13;;;;;;;9.98;7.07;;;1.40;99.90;;;;;;6051884;23;20051;-82
2022/04/02 08:00:10;;;;;;;9.25;7.03;;;1.40;99.90;;;;;;5967128;24;20041;-80
2022/04/02 08:03:24;;;;;;;9.23;6.50;;;1.40;99.90;;;;;;5881432;24;20041;-82
2022/04/02 08:09:47;;;;;;;;;;;;;;;;;;;;;
2022/04/02 08:12:44;;;;;;;13.57;7.15;;;1.50;99.90;;;;;;5859854;24;20068;-80
2022/04/02 08:15:47;;;;;;;8.30;5.90;;;1.40;99.90;;;;;;5860331;24;20002;-83
2022/04/02 08:22:18;;;;;;;9.93;6.88;;;1.30;99.90;;;;;;5887624;24;20013;-82
2022/04/02 08:25:23;;;;;;;11.43;6.63;;;1.20;99.90;;;;;;5915042;24;20024;-79
2022/04/02 08:28:20;;;;;;;9.52;6.28;;;1.20;99.90;;;;;;5888564;24;20316;-81
2022/04/02 08:31:10;;;;;;;9.23;7.07;;;1.20;99.90;;;;;;5908401;24;20005;-80
2022/04/02 08:34:31;;;;;;;9.65;6.90;;;1.20;99.90;;;;;;5904802;24;20010;-80
2022/04/02 08:40:49;;;;;;;11.75;7.03;;;1.30;99.90;;;;;;6083660;23;20010;-80
2022/04/02 08:48:05;;;;;;;9.43;6.88;;;1.30;99.90;;;;;;6203139;23;20094;-81
2022/04/02 08:50:41;;;;;;;9.18;7.00;;;1.40;99.90;;;;;;6188616;23;20004;-79
2022/04/02 08:53:23;;;;;;;10.63;7.20;;;1.50;99.90;;;;;;6230285;23;20001;-81
2022/04/02 08:56:39;;;;;;;12.80;8.57;;;1.40;99.90;;;;;;6202906;23;20036;-81
2022/04/02 09:03:24;;;;;;;10.00;7.80;;;1.40;99.90;;;;;;6117387;23;20017;-85
2022/04/02 09:06:20;;;;;;;10.70;7.45;;;1.40;99.90;;;;;;6143326;23;20063;-82
2022/04/02 09:13:30;;;;;;;;;;;;;;;;;;;;;
2022/04/02 09:30:35;;;;;;;12.80;8.85;;;1.40;99.90;;;;;;6220898;22;20040;-83
2022/04/02 09:33:59;;;;;;;13.27;9.18;;;1.20;99.90;;;;;;6093823;23;20014;-82
2022/04/02 09:36:59;;;;;;;15.18;9.98;;;1.20;99.90;;;;;;6137643;23;20052;-81
2022/04/02 11:23:34;;;;;;;11.45;8.25;;;1.70;99.90;;;;;;6145359;23;21132;31
2022/04/02 11:33:53;;;;;;;11.30;8.57;;;2.40;99.90;;;;;;6228496;23;20058;-82
2022/04/02 11:49:23;;;;;;;11.73;8.70;;;2.60;99.90;;;;;;6181357;22;20016;-84
2022/04/02 11:52:19;;;;;;;10.82;8.48;;;2.50;99.90;;;;;;6166879;23;20011;-84
2022/04/02 11:54:48;;;;;;;13.80;9.18;;;2.30;99.90;;;;;;6222015;23;20031;-83
2022/04/02 12:07:58;;;;;;;14.13;9.65;;;2.10;99.90;;;;;;6196087;22;20079;-83
2022/04/02 12:10:28;;;;;;;15.82;10.10;;;2.10;99.90;;;;;;6248875;23;20023;-83
2022/04/02 12:16:43;;;;;;;13.45;9.88;;;2.10;99.90;;;;;;6224338;22;20063;-85
2022/04/02 12:40:43;;;;;;;15.00;11.02;;;2.20;99.90;;;;;;6122005;23;20322;-85
2022/04/02 12:43:11;;;;;;;15.55;10.55;;;2.10;99.90;;;;;;6179680;23;20005;-84
2022/04/02 12:45:38;;;;;;;15.93;11.35;;;2.00;99.90;;;;;;6141962;23;20073;-84
2022/04/02 12:48:17;;;;;;;16.23;11.48;;;2.10;99.90;;;;;;6121059;23;20006;-81
2022/04/02 12:50:51;;;;;;;15.10;11.32;;;2.10;99.90;;;;;;6119851;23;20006;-82
2022/04/02 12:53:31;;;;;;;16.60;12.48;;;2.20;99.90;;;;;;6137793;23;20054;-84
2022/04/02 12:55:59;;;;;;;15.65;11.13;;;2.10;99.90;;;;;;6104158;23;20007;-82
2022/04/02 12:58:40;;;;;;;16.10;11.55;;;2.40;99.90;;;;;;6104260;23;20002;-85
2022/04/02 13:01:25;;;;;;;15.75;11.55;;;2.50;99.90;;;;;;6131709;23;20010;-84
2022/04/02 13:08:19;;;;;;;15.32;11.15;;;3.00;99.90;;;;;;6132282;23;20093;-82
2022/04/02 13:14:47;;;;;;;12.45;10.05;;;2.80;99.90;;;;;;6132743;23;20089;-84
2022/04/02 13:17:18;;;;;;;16.23;9.65;;;2.60;99.90;;;;;;6132505;23;20054;-84
2022/04/02 13:22:50;;;;;;;14.82;10.15;;;2.50;99.90;;;;;;6133017;23;20010;-83
2022/04/02 13:25:34;;;;;;;15.02;9.98;;;2.40;99.90;;;;;;6132731;23;20058;-83
2022/04/02 13:28:24;;;;;;;14.68;10.55;;;2.30;99.90;;;;;;6132583;23;20009;-84
2022/04/02 13:38:19;;;;;;;14.30;10.70;;;2.30;99.90;;;;;;6219452;23;20052;-85
2022/04/02 13:40:55;;;;;;;13.80;10.35;;;2.20;99.90;;;;;;6195607;23;20001;-83
2022/04/02 13:43:43;;;;;;;14.48;10.45;;;2.30;99.90;;;;;;6225481;23;20028;-84
2022/04/02 13:46:25;;;;;;;14.70;11.10;;;2.40;99.90;;;;;;6212226;23;20020;-84
2022/04/02 13:49:05;;;;;;;15.75;10.45;;;2.50;99.90;;;;;;6229717;23;20198;-83
2022/04/02 13:52:03;;;;;;;15.13;11.25;;;2.70;99.90;;;;;;6248343;23;20023;-82
2022/04/02 13:54:32;;;;;;;;;;;2.50;99.90;;;;;;6222438;23;20005;-82
2022/04/02 13:57:12;;;;;;;14.00;9.80;;;2.40;99.90;;;;;;6222693;23;19920;-83
2022/04/02 13:59:57;;;;;;;15.82;10.95;;;2.40;99.90;;;;;;6199706;23;20009;-84
2022/04/02 14:02:28;;;;;;;14.27;10.23;;;2.60;99.90;;;;;;6225510;23;20012;-83
2022/04/02 14:05:22;;;;;;;13.05;10.35;;;2.60;99.90;;;;;;6249845;23;20234;-83
2022/04/02 14:08:10;;;;;;;14.77;10.75;;;2.70;99.90;;;;;;6225563;23;20069;-83
2022/04/02 14:10:36;;;;;;;;;;;2.70;99.90;;;;;;6224610;23;20060;-83
2022/04/02 14:17:06;;;;;;;14.60;10.68;;;2.60;99.90;;;;;;6225602;23;20070;-84
2022/04/02 14:23:57;;;;;;;16.65;11.55;;;2.80;99.90;;;;;;6193856;23;20011;-86
2022/04/02 14:27:00;;;;;;;14.48;10.80;;;3.00;99.90;;;;;;6190565;23;20004;-84
2022/04/02 14:30:04;;;;;;;14.25;11.02;;;3.20;99.90;;;;;;6249871;23;20061;-83
2022/04/02 14:33:08;;;;;;;14.38;10.13;;;3.10;99.90;;;;;;6249407;23;20048;-84
2022/04/02 14:36:20;;;;;;;13.45;9.77;;;2.90;99.90;;;;;;6250599;23;20012;-84
2022/04/02 14:39:13;;;;;;;16.20;11.10;;;2.80;99.90;;;;;;6249042;23;20048;-84
2022/04/02 14:42:12;;;;;;;14.82;10.95;;;2.50;99.90;;;;;;6222056;23;20067;-85
2022/04/02 14:48:57;;;;;;;15.65;11.85;;;2.10;99.90;;;;;;6222854;23;20035;-83
2022/04/02 14:56:12;;;;;;;20.25;13.15;;;2.20;99.90;;;;;;6223919;23;20091;-85
2022/04/02 14:58:50;;;;;;;19.23;13.13;;;2.40;99.90;;;;;;6249430;23;20011;-86
2022/04/02 15:01:35;;;;;;;19.98;13.90;;;2.50;99.90;;;;;;6197618;23;20013;-84
2022/04/02 15:04:22;;;;;;;17.60;12.57;;;2.60;99.90;;;;;;6197583;23;20063;-84
2022/04/02 15:07:03;;;;;;;16.80;12.88;;;2.50;99.90;;;;;;6222725;23;20195;-84
2022/04/02 15:10:07;;;;;;;18.60;12.85;;;2.60;99.90;;;;;;6223056;23;20005;-83
2022/04/02 15:12:42;;;;;;;20.67;13.23;;;2.40;99.90;;;;;;6249709;23;20000;-83
2022/04/02 15:15:44;;;;;;;19.10;13.35;;;2.60;99.90;;;;;;6248384;23;20004;-84
2022/04/02 15:18:18;;;;;;;16.38;12.45;;;2.60;99.90;;;;;;6249984;23;20004;-84
2022/04/02 15:21:02;;;;;;;17.83;12.60;;;2.60;99.90;;;;;;6250426;23;20036;-84
2022/04/02 15:23:28;;;;;;;19.83;13.25;;;2.40;99.90;;;;;;6189278;23;20013;-85
2022/04/02 15:25:57;;;;;;;19.77;12.73;;;2.30;99.90;;;;;;6161137;23;20017;-86
2022/04/02 15:29:13;;;;;;;18.58;12.43;;;2.30;99.90;;;;;;6161944;23;20016;-84
2022/04/02 15:31:57;;;;;;;18.20;13.13;;;2.20;99.90;;;;;;6165815;23;20080;-84
2022/04/02 15:34:24;;;;;;;20.13;13.23;;;2.30;99.90;;;;;;6163908;23;20093;-82
2022/04/02 15:37:05;;;;;;;18.17;13.05;;;2.40;99.90;;;;;;6161716;23;20001;-82
2022/04/02 15:39:33;;;;;;;19.45;13.93;;;2.40;99.90;;;;;;6162672;23;20193;-83
2022/04/02 15:42:18;;;;;;;18.52;13.65;;;2.50;99.90;;;;;;6161905;23;20018;-84
2022/04/02 15:45:02;;;;;;;18.20;13.27;;;2.40;99.90;;;;;;6107589;23;20280;-83
2022/04/02 15:47:57;;;;;;;19.77;13.95;;;2.40;99.90;;;;;;6132828;23;20081;-83
2022/04/02 15:59:57;;;;;;;18.75;13.05;;;2.30;99.90;;;;;;6181974;23;19916;-83
2022/04/02 16:07:22;;;;;;;17.45;13.68;;;2.20;99.90;;;;;;6198614;23;20008;-84
2022/04/02 16:10:13;;;;;;;18.42;13.55;;;2.00;99.90;;;;;;6162502;23;20020;-85
2022/04/02 16:13:16;;;;;;;20.27;13.45;;;2.00;99.90;;;;;;6183694;23;20009;-84
2022/04/02 16:16:04;;;;;;;19.85;13.60;;;1.90;99.90;;;;;;6170208;23;20228;-82
2022/04/02 16:21:46;;;;;;;20.70;14.18;;;1.90;99.90;;;;;;6171110;23;20005;-85
2022/04/02 16:24:11;;;;;;;20.73;14.52;;;2.00;99.90;;;;;;6172870;23;20025;-83
2022/04/02 16:26:50;;;;;;;21.50;14.20;;;1.90;99.90;;;;;;6175207;23;20063;-82
2022/04/02 16:29:16;;;;;;;19.65;13.77;;;2.00;99.90;;;;;;6174166;23;20012;-84
2022/04/02 16:31:42;;;;;;;20.20;13.52;;;2.00;99.90;;;;;;6170807;23;20035;-83
2022/04/02 16:34:08;;;;;;;19.88;13.25;;;2.00;99.90;;;;;;6173591;23;20016;-82
2022/04/02 16:36:36;;;;;;;16.40;12.52;;;2.00;99.90;;;;;;6173765;23;20001;-86
2022/04/02 16:39:05;;;;;;;20.77;13.82;;;2.00;99.90;;;;;;6172871;23;20001;-81
2022/04/02 16:45:46;;;;;;;18.38;12.10;;;2.00;99.90;;;;;;6199068;23;19946;-84
2022/04/02 16:49:17;;;;;;;19.40;12.40;;;2.10;99.90;;;;;;6183421;23;20044;-81
2022/04/02 16:52:01;;;;;;;17.45;11.88;;;2.10;99.90;;;;;;6170081;23;20008;-85
2022/04/02 16:54:33;;;;;;;15.68;11.80;;;1.90;99.90;;;;;;6172388;23;20003;-80
2022/04/02 16:57:19;;;;;;;17.00;12.10;;;1.90;99.90;;;;;;6170508;23;20005;-82
2022/04/02 17:03:51;;;;;;;17.40;12.25;;;1.90;99.90;;;;;;6230947;23;20023;-82
2022/04/02 17:06:36;;;;;;;17.58;13.20;;;1.80;99.90;;;;;;6211658;23;20001;-81
2022/04/02 17:13:05;;;;;;;20.27;12.77;;;1.80;99.90;;;;;;6231155;23;20002;-81
2022/04/02 17:15:32;;;;;;;17.15;13.70;;;1.80;99.90;;;;;;6208275;23;20031;-80
2022/04/02 17:18:13;;;;;;;21.42;13.20;;;1.70;99.90;;;;;;6205516;23;20024;-81
2022/04/02 17:20:42;;;;;;;19.42;13.38;;;1.70;99.90;;;;;;6203403;23;20004;-84
2022/04/02 17:23:08;;;;;;;;;;;1.70;99.90;;;;;;6229058;23;20000;-80
2022/04/02 17:25:36;;;;;;;20.30;13.00;;;1.70;99.90;;;;;;6196895;23;19900;-81
2022/04/02 17:28:10;;;;;;;19.58;13.07;;;1.70;99.90;;;;;;6146657;23;20072;-81
2022/04/02 17:30:40;;;;;;;21.60;13.65;;;1.70;99.90;;;;;;6170787;23;20020;-81
2022/04/02 17:33:07;;;;;;;18.35;13.02;;;1.60;99.90;;;;;;6172770;23;20128;-81
2022/04/02 17:35:36;;;;;;;20.15;12.75;;;1.50;99.90;;;;;;6173224;23;19997;-82
2022/04/02 17:38:17;;;;;;;17.67;12.30;;;1.50;99.90;;;;;;6172853;23;20004;-83
2022/04/02 17:41:33;;;;;;;21.00;13.48;;;1.40;99.90;;;;;;6173377;23;20009;-82
2022/04/02 17:44:22;;;;;;;18.08;12.02;;;1.40;99.90;;;;;;6147179;23;20004;-81
2022/04/02 17:47:02;;;;;;;21.67;13.50;;;1.30;99.90;;;;;;6146172;23;20024;-80
2022/04/02 17:49:33;;;;;;;19.95;13.88;;;1.30;99.90;;;;;;6171846;23;20004;-80
2022/04/02 17:51:59;;;;;;;22.75;13.73;;;1.30;99.90;;;;;;6196471;23;20001;-81
2022/04/02 17:54:45;;;;;;;18.80;13.32;;;1.20;99.90;;;;;;6148352;23;20009;-80
2022/04/02 17:57:11;;;;;;;19.25;13.90;;;1.30;99.90;;;;;;6164254;23;20357;-82
2022/04/02 17:59:51;;;;;;;19.08;13.10;;;1.30;99.90;;;;;;6196310;23;20017;-82
2022/04/02 18:02:19;;;;;;;19.60;14.25;;;1.30;99.90;;;;;;6146167;23;20020;-81
2022/04/02 18:04:56;;;;;;;20.92;14.30;;;1.30;99.90;;;;;;6171280;23;20012;-84
2022/04/02 18:07:50;;;;;;;21.70;15.27;;;1.20;99.90;;;;;;6172369;23;20023;-82
2022/04/02 18:10:33;;;;;;;21.77;15.85;;;1.30;99.90;;;;;;6192314;23;20005;-81
2022/04/02 18:13:00;;;;;;;23.40;15.10;;;1.30;99.90;;;;;;6195642;23;20056;-83
2022/04/02 18:15:42;;;;;;;22.73;16.02;;;1.30;99.90;;;;;;6169148;23;20009;-83
2022/04/02 18:18:52;;;;;;;22.92;15.23;;;1.30;99.90;;;;;;6169085;23;20013;-82
2022/04/02 18:25:13;;;;;;;22.58;16.10;;;1.20;99.90;;;;;;6194227;23;20003;-81
2022/04/02 18:27:40;;;;;;;22.05;15.18;;;1.20;99.90;;;;;;6171453;23;20020;-82
2022/04/02 18:30:50;;;;;;;21.77;15.43;;;1.30;99.90;;;;;;6172721;23;20001;-82
2022/04/02 18:33:22;;;;;;;24.23;15.23;;;1.20;99.90;;;;;;6171460;23;20013;-82
2022/04/02 18:35:53;;;;;;;23.27;15.95;;;1.20;99.90;;;;;;6197157;23;20164;-81
2022/04/02 18:38:20;;;;;;;22.55;15.80;;;1.20;99.90;;;;;;6199072;23;20005;-82
2022/04/02 18:40:48;;;;;;;23.77;15.95;;;1.10;99.90;;;;;;6196361;23;20186;-81
2022/04/02 18:43:18;;;;;;;24.13;16.33;;;1.20;99.90;;;;;;6195817;23;20067;-83
2022/04/02 18:45:46;;;;;;;22.45;15.07;;;1.20;99.90;;;;;;6194931;23;20215;-82
2022/04/02 18:48:16;;;;;;;23.08;16.55;;;1.10;99.90;;;;;;6195511;23;20005;-82
2022/04/02 18:50:42;;;;;;;24.85;17.70;;;1.10;99.90;;;;;;6197515;23;20027;-82
2022/04/02 18:53:24;;;;;;;23.15;16.58;;;1.10;99.90;;;;;;6195812;23;20008;-84
2022/04/02 18:55:50;;;;;;;23.08;16.60;;;1.00;99.90;;;;;;6196348;23;20008;-82
2022/04/02 18:58:20;;;;;;;23.45;16.48;;;1.10;99.90;;;;;;6195648;23;20028;-81
2022/04/02 19:01:20;;;;;;;26.08;16.65;;;1.10;99.90;;;;;;6194370;23;20024;-83
2022/04/02 19:07:36;;;;;;;21.17;14.85;;;1.10;99.90;;;;;;6195197;23;20016;-82
2022/04/02 19:10:27;;;;;;;21.67;14.40;;;1.10;99.90;;;;;;6168874;23;19997;-81
2022/04/02 19:13:13;;;;;;;20.90;14.52;;;1.10;99.90;;;;;;6169062;23;20242;-83
2022/04/02 19:15:39;;;;;;;25.65;15.40;;;1.00;99.90;;;;;;6168264;23;20073;-83
2022/04/02 19:18:05;;;;;;;22.55;15.25;;;1.10;99.90;;;;;;6170591;23;20008;-82
2022/04/02 19:21:04;;;;;;;20.98;14.15;;;1.10;99.90;;;;;;6171343;23;20313;-83
2022/04/02 19:26:50;;;;;;;22.15;15.05;;;1.10;99.90;;;;;;6179457;23;20009;-83
2022/04/02 19:30:03;;;;;;;21.88;15.50;;;1.10;99.90;;;;;;6212343;23;20016;-80
2022/04/02 19:32:32;;;;;;;23.30;13.50;;;1.10;99.90;;;;;;6185509;23;20028;-82
2022/04/02 19:34:58;;;;;;;21.05;14.13;;;1.10;99.90;;;;;;6179400;23;19997;-82
2022/04/02 19:37:47;;;;;;;20.10;13.55;;;1.10;99.90;;;;;;6174477;23;20036;-82
2022/04/02 19:40:15;;;;;;;22.48;14.32;;;1.20;99.90;;;;;;6170064;23;20005;-81
2022/04/02 19:42:41;;;;;;;18.63;12.98;;;1.20;99.90;;;;;;6171684;23;20278;-83
2022/04/02 19:45:10;;;;;;;18.75;12.70;;;1.20;99.90;;;;;;6168576;23;20005;-81
2022/04/02 19:47:36;;;;;;;;;;;1.20;99.90;;;;;;6170565;23;20014;-80
2022/04/02 19:50:04;;;;;;;20.65;12.77;;;1.20;99.90;;;;;;6170105;23;19924;-80
2022/04/02 19:52:30;;;;;;;21.40;14.60;;;1.20;99.90;;;;;;6168769;23;20120;-82
2022/04/02 19:55:04;;;;;;;19.67;12.85;;;1.10;99.90;;;;;;6193561;23;20071;-82
2022/04/02 19:57:36;;;;;;;18.90;12.90;;;1.10;99.90;;;;;;6168643;23;20305;-81
2022/04/02 20:00:26;;;;;;;21.38;12.50;;;1.10;99.90;;;;;;6074958;23;20290;-81
2022/04/02 20:03:01;;;;;;;16.73;11.93;;;1.20;99.90;;;;;;6017193;23;20018;-81
2022/04/02 20:09:32;;;;;;;19.33;11.82;;;1.10;99.90;;;;;;6163660;23;20017;-81
2022/04/02 20:12:33;;;;;;;19.15;11.65;;;1.10;99.90;;;;;;6138699;23;20037;-80
2022/04/02 20:15:23;;;;;;;18.27;12.25;;;1.10;99.90;;;;;;6162057;23;20012;-81
2022/04/02 20:18:00;;;;;;;20.63;13.95;;;1.10;99.90;;;;;;6168050;23;20366;-80
2022/04/02 20:20:28;;;;;;;20.77;12.52;;;1.10;99.90;;;;;;6200164;23;20008;-81
2022/04/02 20:22:54;;;;;;;18.80;12.98;;;1.20;99.90;;;;;;6199539;23;20348;-81
2022/04/02 20:25:20;;;;;;;20.48;13.40;;;1.20;99.90;;;;;;6199068;23;19993;-82
2022/04/02 20:31:17;;;;;;;18.52;12.48;;;1.20;99.90;;;;;;6223261;23;20051;-81
2022/04/02 20:34:01;;;;;;;19.33;11.65;;;1.30;99.90;;;;;;6199355;23;20063;-81
2022/04/02 20:36:27;;;;;;;17.58;12.15;;;1.20;99.90;;;;;;6199463;23;20300;-81
2022/04/02 20:38:58;;;;;;;17.60;12.07;;;1.20;99.90;;;;;;6198684;23;20055;-81
2022/04/02 20:41:25;;;;;;;17.67;11.88;;;1.20;99.90;;;;;;6199185;23;20009;-81
2022/04/02 20:43:54;;;;;;;15.85;12.20;;;1.20;99.90;;;;;;6224953;23;20015;-80
2022/04/02 20:46:22;;;;;;;18.45;12.63;;;1.20;99.90;;;;;;6185241;23;20305;-80
2022/04/02 20:49:21;;;;;;;17.88;11.07;;;1.20;99.90;;;;;;6200411;23;20008;-81
2022/04/02 20:51:58;;;;;;;;;;;1.20;99.90;;;;;;6200853;23;20294;-80
2022/04/02 20:54:34;;;;;;;17.58;11.00;;;1.30;99.90;;;;;;6200651;23;19915;-81
2022/04/02 20:57:26;;;;;;;16.63;11.32;;;1.20;99.90;;;;;;6199647;23;20083;-82
2022/04/02 21:00:15;;;;;;;18.27;11.57;;;1.20;99.90;;;;;;6224663;23;20078;-81
2022/04/02 21:02:41;;;;;;;16.70;11.60;;;1.20;99.90;;;;;;6200598;23;20004;-82
2022/04/02 21:05:09;;;;;;;16.23;11.60;;;1.20;99.90;;;;;;6195261;23;20013;-82
2022/04/02 21:11:22;;;;;;;16.92;11.38;;;1.20;99.90;;;;;;6189279;22;20368;-82
2022/04/02 21:13:52;;;;;;;16.00;11.05;;;1.20;99.90;;;;;;6233403;23;20004;-82
2022/04/02 21:16:21;;;;;;;16.75;11.57;;;1.20;99.90;;;;;;6231635;23;20016;-82
2022/04/02 21:18:53;;;;;;;16.13;11.50;;;1.20;99.90;;;;;;6232998;22;20051;-81
2022/04/02 21:21:47;;;;;;;18.38;11.35;;;1.20;99.90;;;;;;6231405;23;20004;-81
2022/04/02 21:27:30;;;;;;;16.75;11.23;;;1.20;99.90;;;;;;6107910;23;20033;-81
2022/04/02 21:29:59;;;;;;;15.15;10.30;;;1.20;99.90;;;;;;6108757;23;20014;-81
